METAR Data
IDs: Format: Raw Decoded Include TAF

Data at: 0748 UTC 22 Oct 2021

KOSH 220653Z AUTO 35004KT 10SM CLR 03/00 A3006 RMK AO2 SLP185 T00280000
KOSH 220553Z AUTO 34006KT 10SM CLR 03/00 A3006 RMK AO2 SLP187 T00330000 10072 20028 401500028 58000
KOSH 220453Z AUTO 35008KT 10SM CLR 04/01 A3006 RMK AO2 SLP185 T00390006
KOSH 220353Z AUTO 32005KT 10SM CLR 04/01 A3006 RMK AO2 SLP186 T00440011
KOSH 220253Z 00000KT 10SM CLR 03/01 A3006 RMK AO2 SLP187 T00330011 53009
KOSH 220153Z 27003KT 10SM CLR 03/01 A3005 RMK AO2 SLP183 T00330011